createdAt,value
2022-12-27T00:00:25.232Z,25.00
2022-12-27T00:03:13.253Z,23.00
2022-12-27T00:05:45.782Z,24.00
2022-12-27T00:13:10.656Z,30.00
2022-12-27T00:15:38.704Z,22.00
2022-12-27T00:18:06.621Z,18.00
2022-12-27T00:23:02.393Z,23.00
2022-12-27T00:25:30.339Z,20.00
2022-12-27T00:27:58.289Z,20.50
2022-12-27T00:30:26.210Z,18.00
2022-12-27T00:32:54.115Z,19.50
2022-12-27T00:35:22.113Z,19.50
2022-12-27T00:37:49.978Z,21.00
2022-12-27T00:47:41.224Z,18.00
2022-12-27T00:50:09.330Z,17.50
2022-12-27T00:55:05.735Z,19.00
2022-12-27T00:57:33.611Z,16.00
2022-12-27T01:00:07.943Z,16.00
2022-12-27T01:05:06.696Z,15.50
2022-12-27T01:07:34.812Z,14.00
2022-12-27T01:10:02.919Z,12.50
2022-12-27T01:12:30.838Z,11.00
2022-12-27T01:19:54.331Z,15.00
2022-12-27T01:22:22.326Z,16.00
2022-12-27T01:24:50.375Z,17.00
2022-12-27T01:29:46.623Z,15.50
2022-12-27T01:32:14.592Z,16.00
2022-12-27T01:34:42.474Z,13.00
2022-12-27T01:39:38.417Z,14.00
2022-12-27T01:47:31.635Z,11.50
2022-12-27T01:50:17.919Z,11.00
2022-12-27T01:52:55.087Z,8.50
2022-12-27T01:55:32.408Z,8.50
2022-12-27T01:58:36.607Z,7.00
2022-12-27T02:01:07.591Z,8.00
2022-12-27T02:06:11.259Z,9.00
2022-12-27T02:08:42.651Z,9.00
2022-12-27T02:11:13.816Z,7.00
2022-12-27T02:13:44.597Z,10.00
2022-12-27T02:16:18.347Z,7.00
2022-12-27T02:18:47.230Z,4.00
2022-12-27T02:21:21.283Z,6.00
2022-12-27T02:24:13.253Z,5.00
2022-12-27T02:27:02.724Z,7.00
2022-12-27T02:29:37.320Z,7.00
2022-12-27T02:32:11.723Z,7.00
2022-12-27T02:34:58.398Z,9.00
2022-12-27T02:37:32.321Z,11.00
2022-12-27T02:40:22.847Z,12.00
2022-12-27T02:43:12.075Z,11.00
2022-12-27T02:48:49.844Z,12.00
2022-12-27T02:52:01.139Z,15.50
2022-12-27T02:55:08.617Z,12.00
2022-12-27T02:58:01.537Z,10.00
2022-12-27T03:01:05.249Z,9.00
2022-12-27T03:03:49.487Z,10.00
2022-12-27T03:09:51.243Z,9.00
2022-12-27T03:12:48.056Z,7.00
2022-12-27T03:15:50.139Z,7.00
2022-12-27T03:18:25.648Z,2.00
2022-12-27T03:21:15.891Z,4.00
2022-12-27T03:24:05.283Z,2.50
2022-12-27T03:26:36.997Z,3.00
2022-12-27T03:29:26.460Z,2.00
2022-12-27T03:32:17.906Z,2.00
2022-12-27T03:34:53.544Z,1.00
2022-12-27T03:37:46.436Z,2.00
2022-12-27T03:41:06.483Z,1.00
2022-12-27T03:43:36.873Z,2.00
2022-12-27T03:46:35.923Z,2.00
2022-12-27T03:49:11.814Z,2.00
2022-12-27T03:51:56.137Z,3.00
2022-12-27T03:54:32.460Z,2.00
2022-12-27T03:57:08.470Z,3.00
2022-12-27T03:59:36.679Z,2.00
2022-12-27T04:02:05.783Z,2.00
2022-12-27T04:04:34.407Z,2.00
2022-12-27T04:07:02.624Z,0.50
2022-12-27T04:12:36.714Z,1.00
2022-12-27T04:15:24.014Z,2.00
2022-12-27T04:20:58.100Z,1.00
2022-12-27T04:23:44.574Z,1.50
2022-12-27T04:26:31.280Z,5.00
2022-12-27T04:29:17.931Z,2.00
2022-12-27T04:32:04.677Z,2.00
2022-12-27T04:34:44.243Z,2.00
2022-12-27T04:37:20.219Z,2.00
2022-12-27T04:40:07.460Z,1.50
2022-12-27T04:42:54.333Z,2.00
2022-12-27T04:48:33.067Z,1.00
2022-12-27T04:51:19.778Z,2.00
2022-12-27T04:56:34.394Z,3.00
2022-12-27T04:59:21.094Z,1.50
2022-12-27T05:02:04.788Z,3.00
2022-12-27T05:04:36.989Z,2.50
2022-12-27T05:07:27.191Z,5.00
2022-12-27T05:10:14.492Z,6.00
2022-12-27T05:13:01.182Z,3.00
2022-12-27T05:15:29.230Z,2.00
2022-12-27T05:17:58.087Z,3.00
2022-12-27T05:20:26.024Z,4.00
2022-12-27T05:23:12.813Z,5.00
2022-12-27T05:28:11.931Z,2.00
2022-12-27T05:30:42.333Z,2.00
2022-12-27T05:33:11.150Z,2.00
2022-12-27T05:35:39.452Z,2.33
2022-12-27T05:38:07.919Z,2.00
2022-12-27T05:40:36.329Z,2.00
2022-12-27T05:43:04.500Z,2.00
2022-12-27T05:45:32.992Z,3.00
2022-12-27T05:48:00.920Z,3.00
2022-12-27T05:50:28.953Z,1.00
2022-12-27T05:53:11.719Z,0.00
2022-12-27T05:55:40.301Z,1.00
2022-12-27T05:58:08.194Z,1.00
2022-12-27T06:00:36.203Z,2.00
2022-12-27T06:03:04.373Z,0.00
2022-12-27T06:05:32.440Z,1.00
2022-12-27T06:08:00.428Z,1.00
2022-12-27T06:10:28.410Z,1.50
2022-12-27T06:12:56.403Z,1.00
2022-12-27T06:15:24.647Z,1.00
2022-12-27T06:17:52.750Z,2.00
2022-12-27T06:20:21.884Z,2.00
2022-12-27T06:22:49.785Z,2.00
2022-12-27T06:25:17.782Z,1.00
2022-12-27T06:27:46.096Z,2.00
2022-12-27T06:30:15.475Z,2.00
2022-12-27T06:32:43.375Z,2.50
2022-12-27T06:35:11.367Z,0.00
2022-12-27T06:40:07.830Z,3.00
2022-12-27T06:42:35.823Z,2.00
2022-12-27T06:45:04.024Z,2.00
2022-12-27T06:47:32.281Z,1.00
2022-12-27T06:50:00.223Z,3.00
2022-12-27T06:52:28.301Z,2.00
2022-12-27T06:54:56.291Z,2.00
2022-12-27T06:57:24.446Z,2.00
2022-12-27T06:59:54.141Z,2.00
2022-12-27T07:04:50.667Z,2.00
2022-12-27T07:07:18.540Z,1.50
2022-12-27T07:09:46.613Z,1.00
2022-12-27T07:12:14.569Z,3.00
2022-12-27T07:14:42.538Z,5.00
2022-12-27T07:17:10.483Z,5.00
2022-12-27T07:19:38.598Z,6.00
2022-12-27T07:22:06.663Z,6.00
2022-12-27T07:24:34.593Z,3.00
2022-12-27T07:27:03.116Z,6.00
2022-12-27T07:29:31.497Z,3.00
2022-12-27T07:31:59.503Z,2.50
2022-12-27T07:34:27.513Z,3.00
2022-12-27T07:36:55.593Z,5.00
2022-12-27T07:39:23.536Z,5.00
2022-12-27T07:41:51.906Z,10.00
2022-12-27T07:44:19.951Z,4.00
2022-12-27T07:46:47.959Z,2.50
2022-12-27T07:49:18.086Z,3.00
2022-12-27T07:51:46.341Z,2.00
2022-12-27T07:54:14.302Z,0.00
2022-12-27T07:56:42.962Z,3.00
2022-12-27T07:59:13.204Z,3.00
2022-12-27T08:02:00.163Z,4.00
2022-12-27T08:04:29.106Z,2.50
2022-12-27T08:07:03.264Z,2.00
2022-12-27T08:09:35.330Z,3.00
2022-12-27T08:12:03.801Z,2.00
2022-12-27T08:14:31.826Z,2.00
2022-12-27T08:17:05.792Z,2.00
2022-12-27T08:19:34.333Z,3.00
2022-12-27T08:24:30.315Z,1.00
2022-12-27T08:26:58.418Z,3.00
2022-12-27T08:29:26.348Z,3.00
2022-12-27T08:31:54.398Z,3.00
2022-12-27T08:34:22.373Z,2.00
2022-12-27T08:36:56.262Z,6.00
2022-12-27T08:39:24.723Z,3.00
2022-12-27T08:41:54.346Z,5.50
2022-12-27T08:46:50.751Z,7.00
2022-12-27T08:50:25.644Z,5.50
2022-12-27T08:55:26.420Z,3.00
2022-12-27T08:58:03.060Z,2.00
2022-12-27T09:00:32.362Z,5.00
2022-12-27T09:03:00.466Z,3.00
2022-12-27T09:07:59.018Z,3.00
2022-12-27T09:10:27.599Z,16.00
2022-12-27T09:12:55.577Z,13.00
2022-12-27T09:15:23.581Z,13.00
2022-12-27T09:20:19.523Z,19.00
2022-12-27T09:22:47.624Z,10.00
2022-12-27T09:25:15.810Z,15.00
2022-12-27T09:27:44.026Z,7.50
2022-12-27T09:30:12.369Z,3.50
2022-12-27T09:32:40.408Z,5.00
2022-12-27T09:35:08.770Z,5.00
2022-12-27T09:40:05.185Z,6.50
2022-12-27T09:43:07.516Z,4.00
2022-12-27T09:45:45.660Z,27.00
2022-12-27T09:48:21.843Z,9.00
2022-12-27T09:50:58.341Z,3.00
2022-12-27T09:53:51.286Z,4.00
2022-12-27T09:59:44.387Z,9.00
2022-12-27T10:08:23.770Z,4.50
2022-12-27T10:11:04.798Z,5.00
2022-12-27T10:13:57.031Z,4.00
2022-12-27T10:16:46.427Z,5.00
2022-12-27T10:19:33.033Z,4.00
2022-12-27T10:22:33.744Z,2.00
2022-12-27T10:27:34.160Z,4.00
2022-12-27T10:30:15.311Z,4.00
2022-12-27T10:32:47.078Z,4.00
2022-12-27T10:35:22.875Z,7.00
2022-12-27T10:37:54.068Z,5.00
2022-12-27T10:40:48.562Z,3.00
2022-12-27T10:43:33.535Z,1.00
2022-12-27T10:49:18.947Z,2.00
2022-12-27T10:51:39.679Z,3.00
2022-12-27T10:54:15.059Z,3.00
2022-12-27T10:56:44.406Z,2.00
2022-12-27T10:59:16.634Z,8.00
2022-12-27T11:04:21.023Z,8.00
2022-12-27T11:07:02.269Z,11.00
2022-12-27T11:09:35.039Z,12.00
2022-12-27T11:12:26.154Z,11.00
2022-12-27T11:15:11.821Z,5.00
2022-12-27T11:17:47.359Z,7.00
2022-12-27T11:20:23.929Z,5.00
2022-12-27T11:23:13.584Z,10.00
2022-12-27T11:26:01.764Z,6.00
2022-12-27T11:28:36.973Z,3.00
2022-12-27T11:31:18.142Z,2.50
2022-12-27T11:33:50.142Z,2.00
2022-12-27T11:36:29.486Z,3.00
2022-12-27T11:38:57.625Z,5.00
2022-12-27T11:41:45.007Z,3.00
2022-12-27T11:47:42.001Z,2.50
2022-12-27T11:50:28.519Z,5.00
2022-12-27T11:53:24.073Z,5.50
2022-12-27T11:56:16.332Z,3.00
2022-12-27T11:59:03.368Z,7.00
2022-12-27T12:02:04.956Z,2.00
2022-12-27T12:05:21.488Z,8.00
2022-12-27T12:11:24.017Z,9.00
2022-12-27T12:14:20.724Z,25.00
2022-12-27T12:17:14.326Z,11.00
2022-12-27T12:20:04.206Z,7.00
2022-12-27T12:22:58.230Z,6.50
2022-12-27T12:25:58.813Z,6.00
2022-12-27T12:29:01.388Z,7.00
2022-12-27T12:31:55.712Z,6.00
2022-12-27T12:34:48.221Z,7.00
2022-12-27T12:37:37.935Z,7.00
2022-12-27T12:40:06.956Z,9.50
2022-12-27T12:43:06.420Z,7.00
2022-12-27T12:46:10.752Z,7.00
2022-12-27T12:49:10.349Z,6.50
2022-12-27T12:51:56.096Z,4.00
2022-12-27T12:54:52.328Z,7.00
2022-12-27T13:00:44.594Z,7.00
2022-12-27T13:03:33.526Z,8.00
2022-12-27T13:06:21.799Z,2.50
2022-12-27T13:09:13.984Z,7.50
2022-12-27T13:12:05.040Z,18.00
2022-12-27T13:15:07.110Z,12.00
2022-12-27T13:18:11.787Z,11.00
2022-12-27T13:20:48.943Z,12.00
2022-12-27T13:23:56.142Z,12.00
2022-12-27T13:29:13.992Z,8.00
2022-12-27T13:34:59.082Z,7.00
2022-12-27T13:37:33.173Z,6.50
2022-12-27T13:40:29.891Z,6.00
2022-12-27T13:43:25.993Z,5.00
2022-12-27T13:46:54.610Z,7.00
2022-12-27T13:49:22.542Z,8.00
2022-12-27T13:51:54.848Z,7.00
2022-12-27T13:57:30.772Z,8.00
2022-12-27T14:00:21.089Z,8.00
2022-12-27T14:03:27.626Z,8.00
2022-12-27T14:06:21.099Z,7.00
2022-12-27T14:08:55.153Z,6.00
2022-12-27T14:11:31.285Z,7.00
2022-12-27T14:14:02.775Z,7.50
2022-12-27T14:17:04.714Z,7.00
2022-12-27T14:19:47.176Z,6.00
2022-12-27T14:22:29.723Z,5.00
2022-12-27T14:25:00.665Z,8.00
2022-12-27T14:28:11.101Z,6.00
2022-12-27T14:31:22.578Z,8.00
2022-12-27T14:34:17.566Z,5.00
2022-12-27T14:37:06.935Z,9.00
2022-12-27T14:39:52.121Z,9.00
2022-12-27T14:42:43.731Z,16.00
2022-12-27T14:45:42.059Z,23.50
2022-12-27T14:51:59.253Z,11.00
2022-12-27T14:54:30.305Z,41.50
2022-12-27T14:57:11.658Z,28.00
2022-12-27T15:00:01.301Z,32.00
2022-12-27T15:05:39.289Z,15.00
2022-12-27T15:08:17.493Z,13.00
2022-12-27T15:11:32.001Z,18.00
2022-12-27T15:14:19.921Z,17.00
2022-12-27T15:17:07.209Z,35.00
2022-12-27T15:19:55.183Z,46.00
2022-12-27T15:27:47.158Z,72.00
2022-12-27T15:35:46.233Z,24.00
2022-12-27T15:38:35.544Z,24.00
2022-12-27T15:41:06.602Z,20.00
2022-12-27T15:44:15.188Z,16.50
2022-12-27T15:47:05.205Z,15.00
2022-12-27T15:49:54.881Z,20.00
2022-12-27T15:52:58.670Z,24.00
2022-12-27T15:58:26.719Z,13.00
2022-12-27T16:01:22.044Z,12.00
2022-12-27T16:06:34.447Z,17.50
2022-12-27T16:09:25.450Z,16.00
2022-12-27T16:12:10.618Z,31.00
2022-12-27T16:17:24.840Z,38.00
2022-12-27T16:20:11.453Z,17.00
2022-12-27T16:25:41.419Z,13.50
2022-12-27T16:28:24.690Z,14.00
2022-12-27T16:30:55.705Z,15.00
2022-12-27T16:33:26.682Z,16.00
2022-12-27T16:36:20.298Z,12.00
2022-12-27T16:39:17.760Z,15.00
2022-12-27T16:41:54.024Z,15.00
2022-12-27T16:44:48.487Z,16.00
2022-12-27T16:47:33.429Z,15.00
2022-12-27T16:50:34.778Z,13.00
2022-12-27T16:53:34.603Z,17.00
2022-12-27T16:56:21.232Z,16.00
2022-12-27T16:58:53.375Z,18.00
2022-12-27T17:01:26.371Z,18.00
2022-12-27T17:04:04.443Z,19.00
2022-12-27T17:06:40.173Z,31.00
2022-12-27T17:09:09.281Z,23.50
2022-12-27T17:11:48.256Z,21.00
2022-12-27T17:14:25.409Z,26.00
2022-12-27T17:16:58.869Z,18.00
2022-12-27T17:19:44.359Z,16.00
2022-12-27T17:22:16.553Z,23.50
2022-12-27T17:24:47.054Z,23.00
2022-12-27T17:27:41.267Z,28.67
2022-12-27T17:30:19.318Z,20.50
2022-12-27T17:35:29.456Z,20.00
2022-12-27T17:38:16.371Z,35.50
2022-12-27T17:40:56.932Z,27.00
2022-12-27T17:44:12.320Z,24.00
2022-12-27T17:46:55.364Z,19.00
2022-12-27T17:49:29.436Z,27.00
2022-12-27T17:52:18.611Z,19.00
2022-12-27T17:55:06.918Z,21.00
2022-12-27T17:57:54.437Z,22.00
2022-12-27T18:00:29.751Z,26.00
2022-12-27T18:05:32.821Z,27.50
2022-12-27T18:08:07.295Z,19.00
2022-12-27T18:10:36.939Z,25.00
2022-12-27T18:13:18.825Z,23.00
2022-12-27T18:15:50.647Z,27.50
2022-12-27T18:18:30.622Z,27.00
2022-12-27T18:21:01.271Z,20.00
2022-12-27T18:23:29.686Z,25.00
2022-12-27T18:26:12.768Z,18.00
2022-12-27T18:28:42.481Z,23.00
2022-12-27T18:31:35.514Z,20.00
2022-12-27T18:34:46.175Z,23.00
2022-12-27T18:37:19.225Z,22.00
2022-12-27T18:40:00.640Z,22.00
2022-12-27T18:42:35.602Z,21.00
2022-12-27T18:45:22.848Z,22.00
2022-12-27T18:48:00.877Z,19.00
2022-12-27T18:53:08.051Z,17.00
2022-12-27T18:55:56.988Z,20.50
2022-12-27T18:58:26.076Z,17.50
2022-12-27T19:01:26.736Z,18.00
2022-12-27T19:04:14.733Z,22.00
2022-12-27T19:06:46.000Z,26.00
2022-12-27T19:09:19.243Z,21.00
2022-12-27T19:11:53.439Z,22.50
2022-12-27T19:19:36.613Z,31.00
2022-12-27T19:22:30.406Z,23.00
2022-12-27T19:25:07.751Z,26.00
2022-12-27T19:27:38.001Z,20.00
2022-12-27T19:30:31.806Z,21.00
2022-12-27T19:35:31.226Z,22.00
2022-12-27T19:38:02.283Z,20.00
2022-12-27T19:40:40.123Z,22.00
2022-12-27T19:43:10.466Z,32.00
2022-12-27T19:45:46.342Z,24.00
2022-12-27T19:48:15.506Z,23.50
2022-12-27T19:50:50.811Z,19.00
2022-12-27T19:53:32.477Z,17.00
2022-12-27T19:56:03.769Z,22.00
2022-12-27T19:58:32.812Z,28.00
2022-12-27T20:01:02.335Z,22.50
2022-12-27T20:03:36.437Z,23.50
2022-12-27T20:06:13.921Z,21.00
2022-12-27T20:13:49.088Z,24.00
2022-12-27T20:18:49.406Z,21.00
2022-12-27T20:23:49.172Z,20.00
2022-12-27T20:29:21.043Z,20.00
2022-12-27T20:31:52.390Z,18.00
2022-12-27T20:34:20.746Z,24.00
2022-12-27T20:36:48.943Z,31.00
2022-12-27T20:39:18.202Z,18.00
2022-12-27T20:41:46.352Z,23.50
2022-12-27T20:44:25.286Z,29.00
2022-12-27T20:46:58.111Z,33.00
2022-12-27T20:52:07.192Z,27.00
2022-12-27T20:54:35.271Z,29.00
2022-12-27T20:57:03.342Z,33.00
2022-12-27T20:59:36.357Z,22.00
2022-12-27T21:04:38.316Z,28.50
2022-12-27T21:07:12.289Z,32.00
2022-12-27T21:09:40.293Z,33.00
2022-12-27T21:12:14.516Z,26.50
2022-12-27T21:17:20.203Z,38.00
2022-12-27T21:19:48.128Z,38.50
2022-12-27T21:22:18.483Z,42.00
2022-12-27T21:27:24.270Z,40.00
2022-12-27T21:32:21.197Z,49.50
2022-12-27T21:34:50.386Z,43.00
2022-12-27T21:37:18.528Z,36.00
2022-12-27T21:39:46.546Z,38.00
2022-12-27T21:42:23.251Z,32.50
2022-12-27T21:44:56.208Z,36.00
2022-12-27T21:47:29.319Z,35.00
2022-12-27T21:49:57.382Z,32.00
2022-12-27T21:52:26.472Z,29.00
2022-12-27T21:55:03.284Z,29.00
2022-12-27T21:57:31.388Z,33.00
2022-12-27T21:59:59.495Z,29.00
2022-12-27T22:02:32.402Z,26.50
2022-12-27T22:05:00.720Z,26.00
2022-12-27T22:08:02.215Z,29.50
2022-12-27T22:10:30.161Z,28.00
2022-12-27T22:15:28.259Z,33.00
2022-12-27T22:17:57.495Z,29.00
2022-12-27T22:20:25.527Z,21.50
2022-12-27T22:22:55.597Z,24.00
2022-12-27T22:27:56.124Z,20.50
2022-12-27T22:32:54.542Z,23.00
2022-12-27T22:35:23.632Z,21.00
2022-12-27T22:40:43.235Z,17.50
2022-12-27T22:43:14.804Z,26.00
2022-12-27T22:45:53.924Z,20.00
2022-12-27T22:48:22.245Z,14.00
2022-12-27T22:50:51.626Z,19.50
2022-12-27T22:53:24.077Z,19.00
2022-12-27T22:55:54.098Z,16.00
2022-12-27T22:58:24.142Z,19.50
2022-12-27T23:00:54.255Z,22.50
2022-12-27T23:03:22.266Z,30.00
2022-12-27T23:05:59.069Z,31.00
2022-12-27T23:08:28.264Z,31.00
2022-12-27T23:11:06.553Z,31.00
2022-12-27T23:13:35.474Z,23.00
2022-12-27T23:16:05.747Z,27.00
2022-12-27T23:18:36.762Z,22.00
2022-12-27T23:21:21.408Z,31.50
2022-12-27T23:23:53.193Z,34.50
2022-12-27T23:26:23.367Z,32.50
2022-12-27T23:28:54.863Z,33.00
2022-12-27T23:31:24.604Z,42.00
2022-12-27T23:33:55.137Z,32.00
2022-12-27T23:36:31.975Z,26.00
2022-12-27T23:39:00.031Z,32.50
2022-12-27T23:44:00.934Z,30.00
2022-12-27T23:46:33.220Z,28.00
2022-12-27T23:49:03.767Z,26.00
2022-12-27T23:51:41.341Z,26.00
2022-12-27T23:54:14.286Z,23.00
2022-12-27T23:56:46.097Z,18.50
2022-12-27T23:59:14.039Z,33.00
